createdAt,value
2022-10-13T00:01:44.399Z,101399.25
2022-10-13T00:04:12.094Z,101404.66
2022-10-13T00:06:39.894Z,101405.06
2022-10-13T00:09:07.552Z,101399.63
2022-10-13T00:11:36.610Z,101385.06
2022-10-13T00:14:05.369Z,101388.97
2022-10-13T00:16:33.344Z,101384.78
2022-10-13T00:19:01.104Z,101387.47
2022-10-13T00:21:29.334Z,101385.59
2022-10-13T00:23:57.347Z,101384.78
2022-10-13T00:29:13.150Z,101387.28
2022-10-13T00:31:40.946Z,101391.88
2022-10-13T00:34:08.555Z,101389.16
2022-10-13T00:36:36.257Z,101394.22
2022-10-13T00:39:04.085Z,101386.94
2022-10-13T00:41:31.746Z,101383.19
2022-10-13T00:44:01.306Z,101378.81
2022-10-13T00:46:32.449Z,101379.25
2022-10-13T00:49:01.834Z,101379.25
2022-10-13T00:51:32.825Z,101377.56
2022-10-13T00:54:02.324Z,101369.44
2022-10-13T00:56:30.621Z,101386.38
2022-10-13T00:58:59.156Z,101377.41
2022-10-13T01:01:26.977Z,101386.56
2022-10-13T01:03:55.952Z,101380.28
2022-10-13T01:06:24.543Z,101381.34
2022-10-13T01:08:52.211Z,101372.34
2022-10-13T01:11:44.819Z,101383.19
2022-10-13T01:14:21.289Z,101377.56
2022-10-13T01:17:11.442Z,101374.03
2022-10-13T01:20:24.047Z,101381.13
2022-10-13T01:23:13.331Z,101376.56
2022-10-13T01:25:58.055Z,101379.25
2022-10-13T01:28:41.036Z,101374.50
2022-10-13T01:31:16.009Z,101374.50
2022-10-13T01:33:49.418Z,101366.56
2022-10-13T01:36:26.987Z,101359.28
2022-10-13T01:39:00.670Z,101361.50
2022-10-13T01:41:35.281Z,101371.50
2022-10-13T01:44:12.645Z,101362.91
2022-10-13T01:46:42.462Z,101361.22
2022-10-13T01:49:13.034Z,101350.75
2022-10-13T01:51:42.110Z,101350.13
2022-10-13T01:54:10.114Z,101353.47
2022-10-13T01:56:38.112Z,101350.94
2022-10-13T01:59:10.184Z,101341.78
2022-10-13T02:01:51.178Z,101344.69
2022-10-13T02:04:27.449Z,101336.72
2022-10-13T02:07:02.047Z,101337.78
2022-10-13T02:09:40.759Z,101341.50
2022-10-13T02:12:13.131Z,101336.09
2022-10-13T02:14:45.247Z,101330.47
2022-10-13T02:17:15.958Z,101329.25
2022-10-13T02:19:44.340Z,101329.06
2022-10-13T02:22:16.016Z,101316.75
2022-10-13T02:24:43.940Z,101324.03
2022-10-13T02:27:11.798Z,101315.91
2022-10-13T02:29:50.729Z,101321.97
2022-10-13T02:32:20.090Z,101327.19
2022-10-13T02:34:48.027Z,101319.25
2022-10-13T02:37:15.672Z,101320.94
2022-10-13T02:39:43.349Z,101313.66
2022-10-13T02:42:11.222Z,101311.13
2022-10-13T02:44:39.969Z,101313.84
2022-10-13T02:47:07.611Z,101318.44
2022-10-13T02:49:36.681Z,101321.13
2022-10-13T02:52:04.325Z,101320.13
2022-10-13T02:54:31.951Z,101312.81
2022-10-13T02:56:59.591Z,101308.41
2022-10-13T02:59:27.329Z,101318.44
2022-10-13T03:01:55.168Z,101307.59
2022-10-13T03:04:22.806Z,101306.09
2022-10-13T03:06:51.730Z,101300.00
2022-10-13T03:09:19.371Z,101307.31
2022-10-13T03:11:46.983Z,101303.28
2022-10-13T03:14:14.631Z,101306.00
2022-10-13T03:16:42.342Z,101301.78
2022-10-13T03:19:09.992Z,101292.34
2022-10-13T03:21:38.708Z,101297.97
2022-10-13T03:24:08.070Z,101293.56
2022-10-13T03:26:35.832Z,101304.00
2022-10-13T03:29:03.694Z,101300.28
2022-10-13T03:31:31.769Z,101297.56
2022-10-13T03:33:59.431Z,101298.59
2022-10-13T03:36:27.287Z,101298.31
2022-10-13T03:38:54.916Z,101299.16
2022-10-13T03:41:23.938Z,101297.97
2022-10-13T03:43:51.759Z,101300.66
2022-10-13T03:46:19.802Z,101299.81
2022-10-13T03:48:48.743Z,101298.59
2022-10-13T03:51:19.197Z,101299.63
2022-10-13T03:53:47.568Z,101299.47
2022-10-13T03:56:17.427Z,101298.25
2022-10-13T03:58:46.573Z,101307.00
2022-10-13T04:01:14.973Z,101307.88
2022-10-13T04:03:42.629Z,101307.69
2022-10-13T04:06:10.705Z,101303.09
2022-10-13T04:08:38.900Z,101295.16
2022-10-13T04:11:09.154Z,101303.28
2022-10-13T04:13:37.077Z,101308.31
2022-10-13T04:16:08.673Z,101299.84
2022-10-13T04:18:38.145Z,101299.84
2022-10-13T04:21:09.314Z,101300.88
2022-10-13T04:23:37.069Z,101292.94
2022-10-13T04:26:05.290Z,101291.22
2022-10-13T04:28:35.743Z,101291.22
2022-10-13T04:31:03.994Z,101289.34
2022-10-13T04:33:32.982Z,101282.25
2022-10-13T04:36:03.931Z,101283.94
2022-10-13T04:38:31.702Z,101281.03
2022-10-13T04:40:59.514Z,101282.09
2022-10-13T04:43:27.238Z,101275.63
2022-10-13T04:45:54.937Z,101276.66
2022-10-13T04:48:22.591Z,101266.66
2022-10-13T04:51:01.045Z,101272.81
2022-10-13T04:53:29.836Z,101276.81
2022-10-13T04:56:01.281Z,101273.75
2022-10-13T04:58:29.356Z,101269.19
2022-10-13T05:00:57.474Z,101267.69
2022-10-13T05:03:25.946Z,101266.56
2022-10-13T05:05:54.065Z,101258.16
2022-10-13T05:08:23.533Z,101259.72
2022-10-13T05:10:55.889Z,101253.56
2022-10-13T05:13:24.084Z,101261.50
2022-10-13T05:15:51.971Z,101254.22
2022-10-13T05:18:19.696Z,101254.78
2022-10-13T05:20:47.448Z,101257.28
2022-10-13T05:23:15.892Z,101257.00
2022-10-13T05:25:45.096Z,101251.97
2022-10-13T05:28:13.096Z,101243.19
2022-10-13T05:30:40.833Z,101246.47
2022-10-13T05:33:09.145Z,101252.72
2022-10-13T05:35:36.866Z,101253.38
2022-10-13T05:38:04.543Z,101253.38
2022-10-13T05:40:33.528Z,101251.69
2022-10-13T05:43:02.584Z,101257.78
2022-10-13T05:45:33.183Z,101252.56
2022-10-13T05:48:00.936Z,101251.31
2022-10-13T05:50:29.367Z,101248.81
2022-10-13T05:52:58.079Z,101242.34
2022-10-13T05:55:25.941Z,101237.13
2022-10-13T05:57:53.801Z,101244.44
2022-10-13T06:00:23.361Z,101231.91
2022-10-13T06:02:56.685Z,101235.06
2022-10-13T06:05:27.185Z,101233.41
2022-10-13T06:07:55.643Z,101232.00
2022-10-13T06:10:24.709Z,101236.38
2022-10-13T06:12:52.366Z,101238.44
2022-10-13T06:15:23.287Z,101241.34
2022-10-13T06:17:54.788Z,101234.91
2022-10-13T06:20:22.698Z,101224.88
2022-10-13T06:22:50.986Z,101228.91
2022-10-13T06:25:18.728Z,101228.06
2022-10-13T06:27:46.430Z,101222.44
2022-10-13T06:30:14.450Z,101206.19
2022-10-13T06:32:42.506Z,101208.91
2022-10-13T06:35:12.359Z,101211.63
2022-10-13T06:37:40.460Z,101212.63
2022-10-13T06:40:09.326Z,101209.53
2022-10-13T06:42:36.968Z,101214.13
2022-10-13T06:45:05.030Z,101220.56
2022-10-13T06:47:32.703Z,101226.00
2022-10-13T06:50:00.315Z,101223.75
2022-10-13T06:52:29.677Z,101223.94
2022-10-13T06:54:57.271Z,101215.22
2022-10-13T06:57:24.917Z,101212.72
2022-10-13T06:59:52.970Z,101221.97
2022-10-13T07:02:20.942Z,101213.47
2022-10-13T07:04:48.853Z,101212.78
2022-10-13T07:07:17.018Z,101213.25
2022-10-13T07:09:46.001Z,101216.81
2022-10-13T07:12:14.078Z,101221.88
2022-10-13T07:14:43.799Z,101215.22
2022-10-13T07:17:12.003Z,101218.38
2022-10-13T07:19:39.592Z,101224.66
2022-10-13T07:22:07.298Z,101225.13
2022-10-13T07:24:34.909Z,101214.72
2022-10-13T07:27:07.597Z,101212.84
2022-10-13T07:29:35.741Z,101213.94
2022-10-13T07:32:03.431Z,101203.16
2022-10-13T07:34:31.085Z,101210.53
2022-10-13T07:36:58.740Z,101208.09
2022-10-13T07:39:26.494Z,101214.81
2022-10-13T07:41:54.172Z,101215.06
2022-10-13T07:44:23.556Z,101212.78
2022-10-13T07:46:51.215Z,101210.16
2022-10-13T07:49:19.047Z,101201.91
2022-10-13T07:51:46.715Z,101208.63
2022-10-13T07:54:14.406Z,101202.81
2022-10-13T07:56:42.044Z,101200.75
2022-10-13T07:59:09.742Z,101197.19
2022-10-13T08:01:39.172Z,101198.59
2022-10-13T08:04:06.974Z,101199.84
2022-10-13T08:06:34.899Z,101188.97
2022-10-13T08:09:03.510Z,101195.69
2022-10-13T08:11:31.771Z,101186.13
2022-10-13T08:14:01.594Z,101189.09
2022-10-13T08:16:30.404Z,101183.34
2022-10-13T08:19:00.144Z,101182.56
2022-10-13T08:24:19.352Z,101172.31
2022-10-13T08:26:47.669Z,101171.75
2022-10-13T08:29:21.824Z,101172.44
2022-10-13T08:31:50.933Z,101173.72
2022-10-13T08:34:20.551Z,101164.31
2022-10-13T08:36:48.762Z,101164.31
2022-10-13T08:39:16.635Z,101167.66
2022-10-13T08:41:45.574Z,101162.25
2022-10-13T08:47:16.666Z,101165.59
2022-10-13T08:49:46.536Z,101162.25
2022-10-13T08:52:19.603Z,101168.75
2022-10-13T08:54:47.680Z,101174.56
2022-10-13T08:57:15.574Z,101180.66
2022-10-13T08:59:43.274Z,101181.69
2022-10-13T09:02:15.169Z,101181.88
2022-10-13T09:04:49.259Z,101170.63
2022-10-13T09:07:20.621Z,101153.50
2022-10-13T09:09:52.562Z,101172.13
2022-10-13T09:12:24.184Z,101175.56
2022-10-13T09:14:59.458Z,101173.09
2022-10-13T09:17:27.780Z,101173.09
2022-10-13T09:20:02.833Z,101189.00
2022-10-13T09:22:32.820Z,101185.25
2022-10-13T09:25:20.199Z,101189.63
2022-10-13T09:27:50.379Z,101179.38
2022-10-13T09:30:38.079Z,101180.00
2022-10-13T09:33:24.477Z,101174.13
2022-10-13T09:39:13.569Z,101171.84
2022-10-13T09:41:42.461Z,101176.03
2022-10-13T09:44:14.077Z,101166.41
2022-10-13T09:46:49.634Z,101167.06
2022-10-13T09:49:35.693Z,101175.25
2022-10-13T09:52:05.839Z,101176.94
2022-10-13T09:54:45.793Z,101179.84
2022-10-13T09:57:29.652Z,101171.88
2022-10-13T10:00:06.137Z,101176.28
2022-10-13T10:02:37.317Z,101172.53
2022-10-13T10:05:08.446Z,101170.22
2022-10-13T10:07:36.073Z,101169.78
2022-10-13T10:10:09.162Z,101167.06
2022-10-13T10:12:40.815Z,101161.41
2022-10-13T10:15:21.096Z,101157.66
2022-10-13T10:17:57.122Z,101155.53
2022-10-13T10:20:41.400Z,101162.06
2022-10-13T10:23:15.458Z,101151.16
2022-10-13T10:25:47.992Z,101155.13
2022-10-13T10:28:35.970Z,101151.38
2022-10-13T10:31:11.914Z,101146.13
2022-10-13T10:33:50.586Z,101157.41
2022-10-13T10:36:23.541Z,101154.47
2022-10-13T10:38:59.974Z,101149.22
2022-10-13T10:41:41.692Z,101144.19
2022-10-13T10:44:12.419Z,101138.94
2022-10-13T10:46:43.306Z,101139.78
2022-10-13T10:49:18.790Z,101143.13
2022-10-13T10:51:47.198Z,101134.31
2022-10-13T10:54:26.002Z,101118.31
2022-10-13T10:56:59.328Z,101114.69
2022-10-13T10:59:40.115Z,101106.91
2022-10-13T11:02:29.122Z,101110.81
2022-10-13T11:05:02.101Z,101107.03
2022-10-13T11:07:55.819Z,101100.34
2022-10-13T11:10:26.250Z,101089.88
2022-10-13T11:13:28.633Z,101094.94
2022-10-13T11:15:56.541Z,101089.47
2022-10-13T11:19:10.137Z,101087.78
2022-10-13T11:22:11.835Z,101084.16
2022-10-13T11:25:00.539Z,101075.13
2022-10-13T11:27:39.271Z,101073.88
2022-10-13T11:30:49.967Z,101068.41
2022-10-13T11:33:53.133Z,101074.91
2022-10-13T11:36:37.878Z,101064.63
2022-10-13T11:39:43.130Z,101067.09
2022-10-13T11:42:27.209Z,101065.34
2022-10-13T11:44:57.808Z,101053.16
2022-10-13T11:47:54.011Z,101057.09
2022-10-13T11:50:31.062Z,101056.59
2022-10-13T11:53:19.241Z,101055.16
2022-10-13T11:55:51.584Z,101050.19
2022-10-13T11:58:22.454Z,101046.94
2022-10-13T12:00:55.402Z,101037.59
2022-10-13T12:06:33.065Z,101037.22
2022-10-13T12:09:04.358Z,101033.44
2022-10-13T12:11:34.898Z,101032.91
2022-10-13T12:14:03.770Z,101031.69
2022-10-13T12:16:31.822Z,101029.34
2022-10-13T12:19:21.260Z,101028.44
2022-10-13T12:21:50.544Z,101026.09
2022-10-13T12:24:18.477Z,101021.69
2022-10-13T12:26:46.150Z,101024.56
2022-10-13T12:29:15.952Z,101020.13
2022-10-13T12:31:47.676Z,101025.28
2022-10-13T12:34:23.830Z,101024.97
2022-10-13T12:37:00.454Z,101017.69
2022-10-13T12:39:29.917Z,101014.41
2022-10-13T12:41:58.888Z,101015.59
2022-10-13T12:44:29.040Z,101010.50
2022-10-13T12:46:59.061Z,101009.69
2022-10-13T12:49:29.578Z,101010.50
2022-10-13T12:52:04.857Z,101002.47
2022-10-13T12:54:35.521Z,101012.38
2022-10-13T12:57:07.228Z,101000.41
2022-10-13T12:59:35.432Z,101002.75
2022-10-13T13:02:16.229Z,101009.13
2022-10-13T13:04:45.190Z,101006.00
2022-10-13T13:07:38.174Z,101002.44
2022-10-13T13:10:19.412Z,100996.97
2022-10-13T13:12:49.052Z,101003.28
2022-10-13T13:15:33.528Z,100999.47
2022-10-13T13:18:39.565Z,100998.91
2022-10-13T13:21:10.617Z,101003.75
2022-10-13T13:23:38.817Z,101000.84
2022-10-13T13:26:14.079Z,100995.41
2022-10-13T13:28:46.519Z,100995.41
2022-10-13T13:31:16.122Z,101001.56
2022-10-13T13:33:43.820Z,100992.97
2022-10-13T13:36:18.885Z,100995.94
2022-10-13T13:38:46.822Z,100989.28
2022-10-13T13:41:15.404Z,100988.91
2022-10-13T13:43:43.461Z,100991.00
2022-10-13T13:46:16.745Z,100984.09
2022-10-13T13:48:44.740Z,100989.56
2022-10-13T13:51:12.522Z,100978.06
2022-10-13T13:53:41.632Z,100986.47
2022-10-13T13:56:12.618Z,100982.31
2022-10-13T13:58:40.412Z,100988.81
2022-10-13T14:01:08.302Z,100989.06
2022-10-13T14:03:36.099Z,100987.84
2022-10-13T14:06:03.789Z,100988.66
2022-10-13T14:08:32.583Z,100987.84
2022-10-13T14:11:02.135Z,100981.53
2022-10-13T14:13:29.776Z,100989.97
2022-10-13T14:15:58.373Z,100982.00
2022-10-13T14:18:26.122Z,100980.72
2022-10-13T14:20:53.767Z,100975.84
2022-10-13T14:23:21.452Z,100972.06
2022-10-13T14:25:49.297Z,100971.00
2022-10-13T14:28:18.692Z,100965.06
2022-10-13T14:30:46.418Z,100970.69
2022-10-13T14:33:19.091Z,100966.41
2022-10-13T14:35:47.033Z,100962.41
2022-10-13T14:38:15.089Z,100964.69
2022-10-13T14:40:42.950Z,100954.81
2022-10-13T14:43:10.618Z,100953.97
2022-10-13T14:45:39.889Z,100951.22
2022-10-13T14:48:07.584Z,100952.91
2022-10-13T14:50:35.287Z,100959.44
2022-10-13T14:53:05.277Z,100955.88
2022-10-13T14:55:32.931Z,100956.56
2022-10-13T14:58:00.608Z,100959.50
2022-10-13T15:00:28.402Z,100960.81
2022-10-13T15:02:57.434Z,100960.22
2022-10-13T15:05:25.239Z,100954.13
2022-10-13T15:07:52.897Z,100953.56
2022-10-13T15:10:20.758Z,100959.00
2022-10-13T15:12:48.480Z,100952.94
2022-10-13T15:15:16.245Z,100951.88
2022-10-13T15:17:43.895Z,100957.94
2022-10-13T15:20:13.398Z,100953.56
2022-10-13T15:22:41.091Z,100942.84
2022-10-13T15:25:11.712Z,100952.34
2022-10-13T15:27:42.164Z,100946.25
2022-10-13T15:30:11.438Z,100952.78
2022-10-13T15:32:39.129Z,100941.25
2022-10-13T15:37:54.259Z,100949.91
2022-10-13T15:40:21.930Z,100939.22
2022-10-13T15:42:49.594Z,100940.06
2022-10-13T15:45:17.496Z,100936.72
2022-10-13T15:47:45.225Z,100942.16
2022-10-13T15:50:12.917Z,100936.09
2022-10-13T15:52:41.546Z,100941.56
2022-10-13T15:55:13.093Z,100936.56
2022-10-13T15:57:40.793Z,100942.25
2022-10-13T16:00:11.962Z,100933.66
2022-10-13T16:02:40.224Z,100949.66
2022-10-13T16:05:09.623Z,100937.34
2022-10-13T16:07:37.529Z,100946.56
2022-10-13T16:10:05.663Z,100941.94
2022-10-13T16:12:34.706Z,100940.50
2022-10-13T16:15:02.463Z,100941.19
2022-10-13T16:17:30.102Z,100943.69
2022-10-13T16:19:57.827Z,100935.97
2022-10-13T16:22:25.586Z,100938.06
2022-10-13T16:24:53.513Z,100939.13
2022-10-13T16:27:22.063Z,100938.50
2022-10-13T16:29:51.173Z,100943.34
2022-10-13T16:32:19.152Z,100938.34
2022-10-13T16:34:47.803Z,100937.72
2022-10-13T16:37:15.482Z,100947.59
2022-10-13T16:39:46.489Z,100948.03
2022-10-13T16:42:16.837Z,100947.44
2022-10-13T16:44:44.603Z,100944.06
2022-10-13T16:47:18.049Z,100934.66
2022-10-13T16:49:46.249Z,100934.66
2022-10-13T16:52:13.952Z,100931.94
2022-10-13T16:54:41.678Z,100945.81
2022-10-13T16:57:09.631Z,100936.41
2022-10-13T16:59:39.445Z,100934.97
2022-10-13T17:02:07.599Z,100941.72
2022-10-13T17:04:36.956Z,100945.94
2022-10-13T17:07:04.634Z,100945.31
2022-10-13T17:09:32.359Z,100944.50
2022-10-13T17:12:00.470Z,100948.28
2022-10-13T17:14:28.239Z,100942.81
2022-10-13T17:16:57.951Z,100944.09
2022-10-13T17:19:26.092Z,100942.88
2022-10-13T17:21:55.135Z,100941.44
2022-10-13T17:24:22.942Z,100946.47
2022-10-13T17:26:51.162Z,100944.09
2022-10-13T17:29:18.846Z,100940.31
2022-10-13T17:31:46.556Z,100940.72
2022-10-13T17:34:14.261Z,100942.59
2022-10-13T17:36:42.055Z,100944.97
2022-10-13T17:39:12.490Z,100947.69
2022-10-13T17:41:42.020Z,100944.28
2022-10-13T17:44:10.962Z,100960.88
2022-10-13T17:46:39.741Z,100960.28
2022-10-13T17:49:08.776Z,100948.34
2022-10-13T17:51:36.496Z,100952.50
2022-10-13T17:54:04.956Z,100948.34
2022-10-13T17:56:34.126Z,100959.25
2022-10-13T17:59:02.798Z,100956.75
2022-10-13T18:01:32.524Z,100955.97
2022-10-13T18:04:02.528Z,100963.59
2022-10-13T18:06:36.785Z,100963.47
2022-10-13T18:09:10.960Z,100952.84
2022-10-13T18:11:40.139Z,100959.56
2022-10-13T18:14:08.884Z,100961.44
2022-10-13T18:16:37.209Z,100956.66
2022-10-13T18:19:05.803Z,100968.44
2022-10-13T18:21:33.512Z,100964.25
2022-10-13T18:24:03.273Z,100966.38
2022-10-13T18:26:34.836Z,100964.94
2022-10-13T18:29:05.660Z,100967.44
2022-10-13T18:31:35.220Z,100964.88
2022-10-13T18:34:05.122Z,100972.84
2022-10-13T18:36:34.350Z,100968.44
2022-10-13T18:39:05.071Z,100970.94
2022-10-13T18:41:33.793Z,100962.97
2022-10-13T18:44:03.400Z,100964.25
2022-10-13T18:46:33.417Z,100963.03
2022-10-13T18:49:01.105Z,100968.47
2022-10-13T18:51:35.691Z,100958.44
2022-10-13T18:54:04.799Z,100963.69
2022-10-13T18:56:36.694Z,100972.69
2022-10-13T18:59:06.331Z,100963.88
2022-10-13T19:01:39.343Z,100964.47
2022-10-13T19:04:07.484Z,100971.38
2022-10-13T19:06:35.518Z,100969.50
2022-10-13T19:09:05.678Z,100968.44
2022-10-13T19:11:34.198Z,100969.28
2022-10-13T19:14:02.724Z,100967.63
2022-10-13T19:16:31.970Z,100967.38
2022-10-13T19:19:02.329Z,100967.16
2022-10-13T19:21:30.279Z,100965.47
2022-10-13T19:24:01.837Z,100972.63
2022-10-13T19:26:32.299Z,100970.56
2022-10-13T19:29:02.297Z,100966.16
2022-10-13T19:31:31.794Z,100973.94
2022-10-13T19:34:00.838Z,100969.09
2022-10-13T19:36:33.034Z,100966.75
2022-10-13T19:39:02.971Z,100976.38
2022-10-13T19:41:33.062Z,100971.13
2022-10-13T19:44:01.480Z,100966.75
2022-10-13T19:46:29.298Z,100970.06
2022-10-13T19:48:58.541Z,100970.91
2022-10-13T19:51:26.255Z,100973.78
2022-10-13T19:53:55.475Z,100970.47
2022-10-13T19:56:25.083Z,100977.03
2022-10-13T19:58:55.791Z,100970.13
2022-10-13T20:01:23.821Z,100977.25
2022-10-13T20:03:51.841Z,100976.25
2022-10-13T20:06:20.856Z,100973.94
2022-10-13T20:08:48.842Z,100974.84
2022-10-13T20:11:24.102Z,100967.94
2022-10-13T20:13:53.878Z,100967.72
2022-10-13T20:16:24.065Z,100967.50
2022-10-13T20:18:53.861Z,100969.78
2022-10-13T20:21:22.551Z,100984.03
2022-10-13T20:23:51.063Z,100981.72
2022-10-13T20:26:21.079Z,100985.88
2022-10-13T20:28:50.501Z,100982.78
2022-10-13T20:31:20.903Z,100990.94
2022-10-13T20:33:50.267Z,100984.66
2022-10-13T20:36:19.010Z,100976.06
2022-10-13T20:38:48.154Z,100972.25
2022-10-13T20:41:22.432Z,100967.66
2022-10-13T20:43:50.450Z,100974.38
2022-10-13T20:46:20.357Z,100968.28
2022-10-13T20:49:09.805Z,100968.09
2022-10-13T20:51:36.918Z,100963.69
2022-10-13T20:54:05.245Z,100960.97
2022-10-13T20:56:35.597Z,100961.00
2022-10-13T20:59:08.008Z,100961.84
2022-10-13T21:01:36.924Z,100962.06
2022-10-13T21:04:05.486Z,100958.28
2022-10-13T21:06:34.295Z,100961.00
2022-10-13T21:09:02.636Z,100957.03
2022-10-13T21:11:30.554Z,100966.03
2022-10-13T21:13:59.701Z,100961.00
2022-10-13T21:16:29.425Z,100958.69
2022-10-13T21:18:58.457Z,100965.84
2022-10-13T21:21:27.848Z,100970.25
2022-10-13T21:23:58.101Z,100966.66
2022-10-13T21:26:28.326Z,100964.56
2022-10-13T21:28:56.550Z,100956.41
2022-10-13T21:31:27.927Z,100952.44
2022-10-13T21:33:55.841Z,100955.59
2022-10-13T21:36:25.696Z,100950.16
2022-10-13T21:38:55.394Z,100944.91
2022-10-13T21:41:23.969Z,100954.16
2022-10-13T21:43:52.521Z,100953.53
2022-10-13T21:46:22.073Z,100951.44
2022-10-13T21:48:54.321Z,100953.94
2022-10-13T21:51:24.244Z,100957.25
2022-10-13T21:53:53.920Z,100959.56
2022-10-13T21:56:22.853Z,100958.50
2022-10-13T21:58:50.537Z,100964.78
2022-10-13T22:01:19.758Z,100954.72
2022-10-13T22:03:48.668Z,100960.63
2022-10-13T22:06:19.673Z,100955.22
2022-10-13T22:08:49.213Z,100958.38
2022-10-13T22:11:18.192Z,100960.69
2022-10-13T22:13:46.294Z,100956.06
2022-10-13T22:16:16.911Z,100951.50
2022-10-13T22:18:45.287Z,100950.91
2022-10-13T22:21:15.224Z,100954.84
2022-10-13T22:23:44.625Z,100950.44
2022-10-13T22:26:13.274Z,100947.09
2022-10-13T22:28:41.505Z,100943.53
2022-10-13T22:31:11.563Z,100943.28
2022-10-13T22:33:41.466Z,100950.19
2022-10-13T22:36:10.004Z,100948.56
2022-10-13T22:38:37.705Z,100944.59
2022-10-13T22:41:08.103Z,100944.59
2022-10-13T22:43:36.493Z,100946.06
2022-10-13T22:46:04.306Z,100947.75
2022-10-13T22:48:36.974Z,100946.56
2022-10-13T22:51:07.751Z,100939.84
2022-10-13T22:53:35.707Z,100939.00
2022-10-13T22:56:08.672Z,100936.91
2022-10-13T22:58:36.375Z,100924.09
2022-10-13T23:01:08.710Z,100932.91
2022-10-13T23:03:36.590Z,100942.53
2022-10-13T23:06:04.988Z,100936.88
2022-10-13T23:08:32.665Z,100937.50
2022-10-13T23:11:00.402Z,100936.66
2022-10-13T23:13:29.449Z,100929.53
2022-10-13T23:16:02.235Z,100935.59
2022-10-13T23:18:29.917Z,100935.38
2022-10-13T23:20:57.614Z,100927.44
2022-10-13T23:23:25.371Z,100927.66
2022-10-13T23:25:53.103Z,100930.41
2022-10-13T23:28:20.952Z,100928.72
2022-10-13T23:30:50.090Z,100925.19
2022-10-13T23:33:17.870Z,100916.38
2022-10-13T23:35:45.665Z,100923.28
2022-10-13T23:38:13.361Z,100917.41
2022-10-13T23:40:41.005Z,100918.03
2022-10-13T23:43:08.628Z,100920.53
2022-10-13T23:45:36.392Z,100921.34
2022-10-13T23:48:07.349Z,100924.31
2022-10-13T23:50:35.379Z,100918.47
2022-10-13T23:53:03.307Z,100913.84
2022-10-13T23:55:31.092Z,100911.75
2022-10-13T23:57:58.735Z,100916.97
